sensor_id;sensor_type;location;lat;lon;timestamp;pressure;altitude;pressure_sealevel;temperature
18704;BMP180;9481;48.796;9.210;2022-07-23T00:01:57;96680.00;;;29.60
18704;BMP180;9481;48.796;9.210;2022-07-23T00:04:23;96678.00;;;29.60
18704;BMP180;9481;48.796;9.210;2022-07-23T00:06:49;96661.00;;;29.50
18704;BMP180;9481;48.796;9.210;2022-07-23T00:09:14;96675.00;;;29.50
18704;BMP180;9481;48.796;9.210;2022-07-23T00:11:40;96678.00;;;29.50
18704;BMP180;9481;48.796;9.210;2022-07-23T00:14:06;96662.00;;;29.40
18704;BMP180;9481;48.796;9.210;2022-07-23T00:16:32;96649.00;;;29.40
18704;BMP180;9481;48.796;9.210;2022-07-23T00:18:57;96647.00;;;29.30
18704;BMP180;9481;48.796;9.210;2022-07-23T00:21:26;96642.00;;;29.30
18704;BMP180;9481;48.796;9.210;2022-07-23T00:23:52;96649.00;;;29.20
18704;BMP180;9481;48.796;9.210;2022-07-23T00:26:18;96649.00;;;29.20
18704;BMP180;9481;48.796;9.210;2022-07-23T00:28:43;96645.00;;;29.20
18704;BMP180;9481;48.796;9.210;2022-07-23T00:31:09;96662.00;;;29.20
18704;BMP180;9481;48.796;9.210;2022-07-23T00:33:35;96637.00;;;29.20
18704;BMP180;9481;48.796;9.210;2022-07-23T00:36:00;96642.00;;;29.10
18704;BMP180;9481;48.796;9.210;2022-07-23T00:38:26;96638.00;;;29.10
18704;BMP180;9481;48.796;9.210;2022-07-23T00:40:51;96640.00;;;29.10
18704;BMP180;9481;48.796;9.210;2022-07-23T00:43:20;96637.00;;;29.00
18704;BMP180;9481;48.796;9.210;2022-07-23T00:45:47;96610.00;;;29.00
18704;BMP180;9481;48.796;9.210;2022-07-23T00:48:12;96615.00;;;29.00
18704;BMP180;9481;48.796;9.210;2022-07-23T00:50:38;96595.00;;;28.90
18704;BMP180;9481;48.796;9.210;2022-07-23T00:53:05;96575.00;;;28.90
18704;BMP180;9481;48.796;9.210;2022-07-23T00:55:30;96585.00;;;28.90
18704;BMP180;9481;48.796;9.210;2022-07-23T00:57:58;96619.00;;;28.90
18704;BMP180;9481;48.796;9.210;2022-07-23T01:00:23;96606.00;;;28.80
18704;BMP180;9481;48.796;9.210;2022-07-23T01:02:49;96624.00;;;28.80
18704;BMP180;9481;48.796;9.210;2022-07-23T01:05:16;96635.00;;;28.80
18704;BMP180;9481;48.796;9.210;2022-07-23T01:07:43;96613.00;;;28.80
18704;BMP180;9481;48.796;9.210;2022-07-23T01:10:09;96619.00;;;28.80
18704;BMP180;9481;48.796;9.210;2022-07-23T01:12:54;96610.00;;;28.70
18704;BMP180;9481;48.796;9.210;2022-07-23T01:15:20;96622.00;;;28.70
18704;BMP180;9481;48.796;9.210;2022-07-23T01:17:45;96609.00;;;28.70
18704;BMP180;9481;48.796;9.210;2022-07-23T01:20:11;96591.00;;;28.70
18704;BMP180;9481;48.796;9.210;2022-07-23T01:22:36;96587.00;;;28.70
18704;BMP180;9481;48.796;9.210;2022-07-23T01:25:02;96594.00;;;28.70
18704;BMP180;9481;48.796;9.210;2022-07-23T01:27:28;96571.00;;;28.70
18704;BMP180;9481;48.796;9.210;2022-07-23T01:29:56;96585.00;;;28.70
18704;BMP180;9481;48.796;9.210;2022-07-23T01:32:22;96600.00;;;28.60
18704;BMP180;9481;48.796;9.210;2022-07-23T01:34:48;96568.00;;;28.60
18704;BMP180;9481;48.796;9.210;2022-07-23T01:37:14;96566.00;;;28.60
18704;BMP180;9481;48.796;9.210;2022-07-23T01:39:39;96536.00;;;28.60
18704;BMP180;9481;48.796;9.210;2022-07-23T01:42:05;96514.00;;;28.70
18704;BMP180;9481;48.796;9.210;2022-07-23T01:44:31;96564.00;;;28.70
18704;BMP180;9481;48.796;9.210;2022-07-23T01:46:56;96571.00;;;28.70
18704;BMP180;9481;48.796;9.210;2022-07-23T01:49:22;96563.00;;;28.70
18704;BMP180;9481;48.796;9.210;2022-07-23T01:51:48;96583.00;;;28.70
18704;BMP180;9481;48.796;9.210;2022-07-23T01:54:32;96571.00;;;28.70
18704;BMP180;9481;48.796;9.210;2022-07-23T01:56:58;96600.00;;;28.70
18704;BMP180;9481;48.796;9.210;2022-07-23T01:59:25;96600.00;;;28.70
18704;BMP180;9481;48.796;9.210;2022-07-23T02:01:51;96594.00;;;28.70
18704;BMP180;9481;48.796;9.210;2022-07-23T02:04:18;96598.00;;;28.70
18704;BMP180;9481;48.796;9.210;2022-07-23T02:06:44;96591.00;;;28.60
18704;BMP180;9481;48.796;9.210;2022-07-23T02:09:10;96576.00;;;28.60
18704;BMP180;9481;48.796;9.210;2022-07-23T02:11:36;96580.00;;;28.60
18704;BMP180;9481;48.796;9.210;2022-07-23T02:14:02;96595.00;;;28.60
18704;BMP180;9481;48.796;9.210;2022-07-23T02:16:28;96594.00;;;28.60
18704;BMP180;9481;48.796;9.210;2022-07-23T02:18:53;96610.00;;;28.60
18704;BMP180;9481;48.796;9.210;2022-07-23T02:21:19;96613.00;;;28.60
18704;BMP180;9481;48.796;9.210;2022-07-23T02:23:45;96616.00;;;28.50
18704;BMP180;9481;48.796;9.210;2022-07-23T02:26:10;96624.00;;;28.50
18704;BMP180;9481;48.796;9.210;2022-07-23T02:28:36;96628.00;;;28.50
18704;BMP180;9481;48.796;9.210;2022-07-23T02:31:02;96638.00;;;28.50
18704;BMP180;9481;48.796;9.210;2022-07-23T02:33:28;96641.00;;;28.50
18704;BMP180;9481;48.796;9.210;2022-07-23T02:35:53;96656.00;;;28.50
18704;BMP180;9481;48.796;9.210;2022-07-23T02:38:19;96653.00;;;28.50
18704;BMP180;9481;48.796;9.210;2022-07-23T02:40:45;96659.00;;;28.40
18704;BMP180;9481;48.796;9.210;2022-07-23T02:43:10;96663.00;;;28.40
18704;BMP180;9481;48.796;9.210;2022-07-23T02:45:36;96670.00;;;28.40
18704;BMP180;9481;48.796;9.210;2022-07-23T02:48:02;96679.00;;;28.40
18704;BMP180;9481;48.796;9.210;2022-07-23T02:50:27;96677.00;;;28.40
18704;BMP180;9481;48.796;9.210;2022-07-23T02:52:53;96690.00;;;28.40
18704;BMP180;9481;48.796;9.210;2022-07-23T02:55:19;96680.00;;;28.40
18704;BMP180;9481;48.796;9.210;2022-07-23T02:57:44;96691.00;;;28.40
18704;BMP180;9481;48.796;9.210;2022-07-23T03:00:11;96682.00;;;28.40
18704;BMP180;9481;48.796;9.210;2022-07-23T03:02:37;96682.00;;;28.40
18704;BMP180;9481;48.796;9.210;2022-07-23T03:05:06;96685.00;;;28.40
18704;BMP180;9481;48.796;9.210;2022-07-23T03:07:47;96686.00;;;28.40
18704;BMP180;9481;48.796;9.210;2022-07-23T03:10:12;96687.00;;;28.40
18704;BMP180;9481;48.796;9.210;2022-07-23T03:12:38;96698.00;;;28.40
18704;BMP180;9481;48.796;9.210;2022-07-23T03:15:05;96688.00;;;28.40
18704;BMP180;9481;48.796;9.210;2022-07-23T03:17:30;96687.00;;;28.40
18704;BMP180;9481;48.796;9.210;2022-07-23T03:19:56;96701.00;;;28.40
18704;BMP180;9481;48.796;9.210;2022-07-23T03:22:22;96691.00;;;28.40
18704;BMP180;9481;48.796;9.210;2022-07-23T03:24:47;96691.00;;;28.40
18704;BMP180;9481;48.796;9.210;2022-07-23T03:27:20;96691.00;;;28.40
18704;BMP180;9481;48.796;9.210;2022-07-23T03:29:46;96683.00;;;28.40
18704;BMP180;9481;48.796;9.210;2022-07-23T03:32:11;96677.00;;;28.40
18704;BMP180;9481;48.796;9.210;2022-07-23T03:34:37;96663.00;;;28.40
18704;BMP180;9481;48.796;9.210;2022-07-23T03:37:04;96656.00;;;28.40
18704;BMP180;9481;48.796;9.210;2022-07-23T03:39:30;96665.00;;;28.40
18704;BMP180;9481;48.796;9.210;2022-07-23T03:41:56;96674.00;;;28.40
18704;BMP180;9481;48.796;9.210;2022-07-23T03:44:21;96676.00;;;28.40
18704;BMP180;9481;48.796;9.210;2022-07-23T03:46:47;96682.00;;;28.40
18704;BMP180;9481;48.796;9.210;2022-07-23T03:49:13;96680.00;;;28.30
18704;BMP180;9481;48.796;9.210;2022-07-23T03:51:38;96681.00;;;28.30
18704;BMP180;9481;48.796;9.210;2022-07-23T03:54:04;96681.00;;;28.30
18704;BMP180;9481;48.796;9.210;2022-07-23T03:56:30;96686.00;;;28.30
18704;BMP180;9481;48.796;9.210;2022-07-23T03:58:56;96686.00;;;28.30
18704;BMP180;9481;48.796;9.210;2022-07-23T04:01:22;96680.00;;;28.20
18704;BMP180;9481;48.796;9.210;2022-07-23T04:03:47;96687.00;;;28.20
18704;BMP180;9481;48.796;9.210;2022-07-23T04:06:13;96687.00;;;28.20
18704;BMP180;9481;48.796;9.210;2022-07-23T04:08:39;96699.00;;;28.20
18704;BMP180;9481;48.796;9.210;2022-07-23T04:11:05;96707.00;;;28.10
18704;BMP180;9481;48.796;9.210;2022-07-23T04:13:31;96695.00;;;28.10
18704;BMP180;9481;48.796;9.210;2022-07-23T04:15:58;96693.00;;;28.10
18704;BMP180;9481;48.796;9.210;2022-07-23T04:18:24;96686.00;;;28.10
18704;BMP180;9481;48.796;9.210;2022-07-23T04:20:53;96700.00;;;28.00
18704;BMP180;9481;48.796;9.210;2022-07-23T04:23:19;96701.00;;;28.00
18704;BMP180;9481;48.796;9.210;2022-07-23T04:25:45;96708.00;;;28.00
18704;BMP180;9481;48.796;9.210;2022-07-23T04:28:10;96701.00;;;28.00
18704;BMP180;9481;48.796;9.210;2022-07-23T04:30:36;96690.00;;;28.00
18704;BMP180;9481;48.796;9.210;2022-07-23T04:33:03;96707.00;;;28.00
18704;BMP180;9481;48.796;9.210;2022-07-23T04:35:33;96711.00;;;28.00
18704;BMP180;9481;48.796;9.210;2022-07-23T04:37:59;96712.00;;;28.00
18704;BMP180;9481;48.796;9.210;2022-07-23T04:40:26;96706.00;;;27.90
18704;BMP180;9481;48.796;9.210;2022-07-23T04:42:51;96702.00;;;28.00
18704;BMP180;9481;48.796;9.210;2022-07-23T04:45:17;96696.00;;;28.00
18704;BMP180;9481;48.796;9.210;2022-07-23T04:47:43;96695.00;;;28.00
18704;BMP180;9481;48.796;9.210;2022-07-23T04:50:08;96697.00;;;28.00
18704;BMP180;9481;48.796;9.210;2022-07-23T04:52:34;96693.00;;;28.00
18704;BMP180;9481;48.796;9.210;2022-07-23T04:55:00;96697.00;;;28.00
18704;BMP180;9481;48.796;9.210;2022-07-23T04:57:26;96702.00;;;28.00
18704;BMP180;9481;48.796;9.210;2022-07-23T04:59:51;96703.00;;;28.00
18704;BMP180;9481;48.796;9.210;2022-07-23T05:02:17;96693.00;;;28.00
18704;BMP180;9481;48.796;9.210;2022-07-23T05:04:43;96697.00;;;28.00
18704;BMP180;9481;48.796;9.210;2022-07-23T05:07:08;96711.00;;;28.10
18704;BMP180;9481;48.796;9.210;2022-07-23T05:09:34;96715.00;;;28.10
18704;BMP180;9481;48.796;9.210;2022-07-23T05:12:00;96704.00;;;28.10
18704;BMP180;9481;48.796;9.210;2022-07-23T05:14:26;96698.00;;;28.20
18704;BMP180;9481;48.796;9.210;2022-07-23T05:16:53;96698.00;;;28.20
18704;BMP180;9481;48.796;9.210;2022-07-23T05:19:19;96707.00;;;28.30
18704;BMP180;9481;48.796;9.210;2022-07-23T05:21:45;96697.00;;;28.30
18704;BMP180;9481;48.796;9.210;2022-07-23T05:24:11;96704.00;;;28.30
18704;BMP180;9481;48.796;9.210;2022-07-23T05:26:36;96702.00;;;28.40
18704;BMP180;9481;48.796;9.210;2022-07-23T05:29:02;96702.00;;;28.40
18704;BMP180;9481;48.796;9.210;2022-07-23T05:31:28;96707.00;;;28.40
18704;BMP180;9481;48.796;9.210;2022-07-23T05:33:53;96708.00;;;28.40
18704;BMP180;9481;48.796;9.210;2022-07-23T05:36:19;96717.00;;;28.40
18704;BMP180;9481;48.796;9.210;2022-07-23T05:38:45;96718.00;;;28.40
18704;BMP180;9481;48.796;9.210;2022-07-23T05:41:11;96724.00;;;28.40
18704;BMP180;9481;48.796;9.210;2022-07-23T05:43:36;96724.00;;;28.40
18704;BMP180;9481;48.796;9.210;2022-07-23T05:46:02;96729.00;;;28.40
18704;BMP180;9481;48.796;9.210;2022-07-23T05:48:27;96717.00;;;28.50
18704;BMP180;9481;48.796;9.210;2022-07-23T05:50:53;96719.00;;;28.50
18704;BMP180;9481;48.796;9.210;2022-07-23T05:53:19;96723.00;;;28.50
18704;BMP180;9481;48.796;9.210;2022-07-23T05:55:44;96728.00;;;28.50
18704;BMP180;9481;48.796;9.210;2022-07-23T05:58:10;96718.00;;;28.50
18704;BMP180;9481;48.796;9.210;2022-07-23T06:00:36;96723.00;;;28.50
18704;BMP180;9481;48.796;9.210;2022-07-23T06:03:02;96733.00;;;28.60
18704;BMP180;9481;48.796;9.210;2022-07-23T06:05:27;96736.00;;;28.60
18704;BMP180;9481;48.796;9.210;2022-07-23T06:07:53;96734.00;;;28.60
18704;BMP180;9481;48.796;9.210;2022-07-23T06:10:19;96714.00;;;28.60
18704;BMP180;9481;48.796;9.210;2022-07-23T06:12:46;96720.00;;;28.60
18704;BMP180;9481;48.796;9.210;2022-07-23T06:15:11;96720.00;;;28.60
18704;BMP180;9481;48.796;9.210;2022-07-23T06:17:38;96722.00;;;28.60
18704;BMP180;9481;48.796;9.210;2022-07-23T06:20:06;96719.00;;;28.60
18704;BMP180;9481;48.796;9.210;2022-07-23T06:22:32;96712.00;;;28.60
18704;BMP180;9481;48.796;9.210;2022-07-23T06:24:58;96711.00;;;28.70
18704;BMP180;9481;48.796;9.210;2022-07-23T06:27:23;96703.00;;;28.70
18704;BMP180;9481;48.796;9.210;2022-07-23T06:29:49;96706.00;;;28.80
18704;BMP180;9481;48.796;9.210;2022-07-23T06:32:15;96715.00;;;28.80
18704;BMP180;9481;48.796;9.210;2022-07-23T06:34:40;96718.00;;;28.90
18704;BMP180;9481;48.796;9.210;2022-07-23T06:37:06;96729.00;;;29.00
18704;BMP180;9481;48.796;9.210;2022-07-23T06:39:32;96732.00;;;29.10
18704;BMP180;9481;48.796;9.210;2022-07-23T06:41:57;96734.00;;;29.10
18704;BMP180;9481;48.796;9.210;2022-07-23T06:44:23;96743.00;;;29.20
18704;BMP180;9481;48.796;9.210;2022-07-23T06:46:49;96735.00;;;29.20
18704;BMP180;9481;48.796;9.210;2022-07-23T06:49:14;96736.00;;;29.20
18704;BMP180;9481;48.796;9.210;2022-07-23T06:51:40;96736.00;;;29.20
18704;BMP180;9481;48.796;9.210;2022-07-23T06:54:06;96748.00;;;29.20
18704;BMP180;9481;48.796;9.210;2022-07-23T06:56:32;96749.00;;;29.30
18704;BMP180;9481;48.796;9.210;2022-07-23T06:58:57;96762.00;;;29.30
18704;BMP180;9481;48.796;9.210;2022-07-23T07:01:23;96764.00;;;29.30
18704;BMP180;9481;48.796;9.210;2022-07-23T07:03:48;96763.00;;;29.30
18704;BMP180;9481;48.796;9.210;2022-07-23T07:06:14;96765.00;;;29.40
18704;BMP180;9481;48.796;9.210;2022-07-23T07:08:40;96772.00;;;29.40
18704;BMP180;9481;48.796;9.210;2022-07-23T07:11:06;96777.00;;;29.40
18704;BMP180;9481;48.796;9.210;2022-07-23T07:13:32;96785.00;;;29.40
18704;BMP180;9481;48.796;9.210;2022-07-23T07:15:58;96781.00;;;29.40
18704;BMP180;9481;48.796;9.210;2022-07-23T07:18:23;96784.00;;;29.40
18704;BMP180;9481;48.796;9.210;2022-07-23T07:20:49;96782.00;;;29.40
18704;BMP180;9481;48.796;9.210;2022-07-23T07:23:14;96776.00;;;29.40
18704;BMP180;9481;48.796;9.210;2022-07-23T07:25:40;96775.00;;;29.50
18704;BMP180;9481;48.796;9.210;2022-07-23T07:28:06;96778.00;;;29.40
18704;BMP180;9481;48.796;9.210;2022-07-23T07:30:32;96769.00;;;29.40
18704;BMP180;9481;48.796;9.210;2022-07-23T07:32:58;96771.00;;;29.40
18704;BMP180;9481;48.796;9.210;2022-07-23T07:35:24;96779.00;;;29.40
18704;BMP180;9481;48.796;9.210;2022-07-23T07:37:50;96777.00;;;29.40
18704;BMP180;9481;48.796;9.210;2022-07-23T07:40:16;96781.00;;;29.40
18704;BMP180;9481;48.796;9.210;2022-07-23T07:42:51;96784.00;;;29.40
18704;BMP180;9481;48.796;9.210;2022-07-23T07:45:20;96789.00;;;29.40
18704;BMP180;9481;48.796;9.210;2022-07-23T07:47:47;96795.00;;;29.50
18704;BMP180;9481;48.796;9.210;2022-07-23T07:50:13;96790.00;;;29.60
18704;BMP180;9481;48.796;9.210;2022-07-23T07:52:39;96798.00;;;29.70
18704;BMP180;9481;48.796;9.210;2022-07-23T07:55:08;96811.00;;;29.80
18704;BMP180;9481;48.796;9.210;2022-07-23T07:57:34;96812.00;;;29.90
18704;BMP180;9481;48.796;9.210;2022-07-23T08:00:00;96809.00;;;30.00
18704;BMP180;9481;48.796;9.210;2022-07-23T08:02:27;96822.00;;;30.00
18704;BMP180;9481;48.796;9.210;2022-07-23T08:04:53;96815.00;;;30.10
18704;BMP180;9481;48.796;9.210;2022-07-23T08:07:19;96833.00;;;30.20
18704;BMP180;9481;48.796;9.210;2022-07-23T08:09:45;96834.00;;;30.20
18704;BMP180;9481;48.796;9.210;2022-07-23T08:12:10;96850.00;;;30.20
18704;BMP180;9481;48.796;9.210;2022-07-23T08:14:36;96838.00;;;30.30
18704;BMP180;9481;48.796;9.210;2022-07-23T08:17:02;96841.00;;;30.30
18704;BMP180;9481;48.796;9.210;2022-07-23T08:19:27;96838.00;;;30.30
18704;BMP180;9481;48.796;9.210;2022-07-23T08:21:53;96843.00;;;30.40
18704;BMP180;9481;48.796;9.210;2022-07-23T08:24:18;96853.00;;;30.40
18704;BMP180;9481;48.796;9.210;2022-07-23T08:26:44;96847.00;;;30.40
18704;BMP180;9481;48.796;9.210;2022-07-23T08:29:10;96838.00;;;30.30
18704;BMP180;9481;48.796;9.210;2022-07-23T08:31:35;96830.00;;;30.30
18704;BMP180;9481;48.796;9.210;2022-07-23T08:34:01;96821.00;;;30.30
18704;BMP180;9481;48.796;9.210;2022-07-23T08:36:28;96828.00;;;30.30
18704;BMP180;9481;48.796;9.210;2022-07-23T08:38:58;96828.00;;;30.20
18704;BMP180;9481;48.796;9.210;2022-07-23T08:41:25;96834.00;;;30.20
18704;BMP180;9481;48.796;9.210;2022-07-23T08:43:51;96838.00;;;30.30
18704;BMP180;9481;48.796;9.210;2022-07-23T08:46:19;96837.00;;;30.30
18704;BMP180;9481;48.796;9.210;2022-07-23T08:48:48;96833.00;;;30.40
18704;BMP180;9481;48.796;9.210;2022-07-23T08:51:15;96834.00;;;30.40
18704;BMP180;9481;48.796;9.210;2022-07-23T08:53:41;96835.00;;;30.60
18704;BMP180;9481;48.796;9.210;2022-07-23T08:56:08;96830.00;;;30.70
18704;BMP180;9481;48.796;9.210;2022-07-23T08:58:34;96838.00;;;30.70
18704;BMP180;9481;48.796;9.210;2022-07-23T09:01:01;96824.00;;;30.80
18704;BMP180;9481;48.796;9.210;2022-07-23T09:03:34;96824.00;;;30.90
18704;BMP180;9481;48.796;9.210;2022-07-23T09:06:00;96826.00;;;31.00
18704;BMP180;9481;48.796;9.210;2022-07-23T09:08:39;96829.00;;;31.00
18704;BMP180;9481;48.796;9.210;2022-07-23T09:11:08;96831.00;;;31.10
18704;BMP180;9481;48.796;9.210;2022-07-23T09:16:31;96834.00;;;31.10
18704;BMP180;9481;48.796;9.210;2022-07-23T09:19:06;96822.00;;;31.20
18704;BMP180;9481;48.796;9.210;2022-07-23T09:24:09;96828.00;;;31.40
18704;BMP180;9481;48.796;9.210;2022-07-23T09:26:46;96818.00;;;31.40
18704;BMP180;9481;48.796;9.210;2022-07-23T09:29:22;96822.00;;;31.60
18704;BMP180;9481;48.796;9.210;2022-07-23T09:34:29;96818.00;;;31.90
18704;BMP180;9481;48.796;9.210;2022-07-23T09:37:10;96809.00;;;31.90
18704;BMP180;9481;48.796;9.210;2022-07-23T09:39:36;96810.00;;;32.10
18704;BMP180;9481;48.796;9.210;2022-07-23T09:42:25;96811.00;;;32.20
18704;BMP180;9481;48.796;9.210;2022-07-23T09:44:56;96799.00;;;32.30
18704;BMP180;9481;48.796;9.210;2022-07-23T09:47:26;96798.00;;;32.50
18704;BMP180;9481;48.796;9.210;2022-07-23T09:50:04;96814.00;;;32.60
18704;BMP180;9481;48.796;9.210;2022-07-23T09:52:48;96804.00;;;32.70
18704;BMP180;9481;48.796;9.210;2022-07-23T09:55:16;96809.00;;;32.80
18704;BMP180;9481;48.796;9.210;2022-07-23T09:57:43;96817.00;;;32.80
18704;BMP180;9481;48.796;9.210;2022-07-23T10:00:28;96807.00;;;32.90
18704;BMP180;9481;48.796;9.210;2022-07-23T10:02:55;96804.00;;;32.90
18704;BMP180;9481;48.796;9.210;2022-07-23T10:05:21;96807.00;;;33.00
18704;BMP180;9481;48.796;9.210;2022-07-23T10:07:51;96802.00;;;33.10
18704;BMP180;9481;48.796;9.210;2022-07-23T10:10:17;96807.00;;;33.20
18704;BMP180;9481;48.796;9.210;2022-07-23T10:12:44;96800.00;;;33.30
18704;BMP180;9481;48.796;9.210;2022-07-23T10:15:26;96808.00;;;33.40
18704;BMP180;9481;48.796;9.210;2022-07-23T10:17:52;96808.00;;;33.40
18704;BMP180;9481;48.796;9.210;2022-07-23T10:20:18;96803.00;;;33.40
18704;BMP180;9481;48.796;9.210;2022-07-23T10:23:06;96813.00;;;33.40
18704;BMP180;9481;48.796;9.210;2022-07-23T10:26:38;96819.00;;;33.40
18704;BMP180;9481;48.796;9.210;2022-07-23T10:29:36;96823.00;;;33.50
18704;BMP180;9481;48.796;9.210;2022-07-23T10:35:09;96818.00;;;33.70
18704;BMP180;9481;48.796;9.210;2022-07-23T10:37:48;96821.00;;;33.70
18704;BMP180;9481;48.796;9.210;2022-07-23T10:43:26;96825.00;;;33.70
18704;BMP180;9481;48.796;9.210;2022-07-23T10:45:53;96818.00;;;33.70
18704;BMP180;9481;48.796;9.210;2022-07-23T10:48:20;96820.00;;;33.70
18704;BMP180;9481;48.796;9.210;2022-07-23T10:51:11;96810.00;;;33.60
18704;BMP180;9481;48.796;9.210;2022-07-23T10:53:57;96808.00;;;33.60
18704;BMP180;9481;48.796;9.210;2022-07-23T10:59:24;96810.00;;;33.70
18704;BMP180;9481;48.796;9.210;2022-07-23T11:01:50;96808.00;;;33.80
18704;BMP180;9481;48.796;9.210;2022-07-23T11:04:16;96800.00;;;33.90
18704;BMP180;9481;48.796;9.210;2022-07-23T11:09:38;96809.00;;;34.10
18704;BMP180;9481;48.796;9.210;2022-07-23T11:14:59;96800.00;;;34.30
18704;BMP180;9481;48.796;9.210;2022-07-23T11:17:25;96801.00;;;34.40
18704;BMP180;9481;48.796;9.210;2022-07-23T11:27:50;96801.00;;;34.60
18704;BMP180;9481;48.796;9.210;2022-07-23T11:36:00;96794.00;;;34.50
18704;BMP180;9481;48.796;9.210;2022-07-23T11:38:30;96811.00;;;34.50
18704;BMP180;9481;48.796;9.210;2022-07-23T11:40:56;96813.00;;;34.50
18704;BMP180;9481;48.796;9.210;2022-07-23T11:43:24;96805.00;;;34.50
18704;BMP180;9481;48.796;9.210;2022-07-23T11:45:57;96807.00;;;34.40
18704;BMP180;9481;48.796;9.210;2022-07-23T11:48:27;96805.00;;;34.40
18704;BMP180;9481;48.796;9.210;2022-07-23T11:50:56;96796.00;;;34.40
18704;BMP180;9481;48.796;9.210;2022-07-23T11:53:32;96792.00;;;34.40
18704;BMP180;9481;48.796;9.210;2022-07-23T11:56:10;96789.00;;;34.60
18704;BMP180;9481;48.796;9.210;2022-07-23T11:58:37;96792.00;;;34.70
18704;BMP180;9481;48.796;9.210;2022-07-23T12:01:03;96795.00;;;34.90
18704;BMP180;9481;48.796;9.210;2022-07-23T12:03:29;96793.00;;;34.90
18704;BMP180;9481;48.796;9.210;2022-07-23T12:06:00;96789.00;;;34.90
18704;BMP180;9481;48.796;9.210;2022-07-23T12:08:26;96800.00;;;35.00
18704;BMP180;9481;48.796;9.210;2022-07-23T12:10:52;96788.00;;;35.00
18704;BMP180;9481;48.796;9.210;2022-07-23T12:13:20;96787.00;;;35.10
18704;BMP180;9481;48.796;9.210;2022-07-23T12:15:57;96794.00;;;35.00
18704;BMP180;9481;48.796;9.210;2022-07-23T12:18:26;96787.00;;;35.10
18704;BMP180;9481;48.796;9.210;2022-07-23T12:20:55;96788.00;;;35.10
18704;BMP180;9481;48.796;9.210;2022-07-23T12:23:25;96786.00;;;35.10
18704;BMP180;9481;48.796;9.210;2022-07-23T12:25:53;96787.00;;;35.20
18704;BMP180;9481;48.796;9.210;2022-07-23T12:28:37;96776.00;;;35.10
18704;BMP180;9481;48.796;9.210;2022-07-23T12:31:04;96785.00;;;35.10
18704;BMP180;9481;48.796;9.210;2022-07-23T12:33:36;96774.00;;;35.10
18704;BMP180;9481;48.796;9.210;2022-07-23T12:36:09;96792.00;;;35.10
18704;BMP180;9481;48.796;9.210;2022-07-23T12:38:44;96776.00;;;35.10
18704;BMP180;9481;48.796;9.210;2022-07-23T12:41:12;96785.00;;;35.20
18704;BMP180;9481;48.796;9.210;2022-07-23T12:43:42;96791.00;;;35.20
18704;BMP180;9481;48.796;9.210;2022-07-23T12:48:49;96795.00;;;35.40
18704;BMP180;9481;48.796;9.210;2022-07-23T12:51:29;96791.00;;;35.40
18704;BMP180;9481;48.796;9.210;2022-07-23T12:54:05;96793.00;;;35.50
18704;BMP180;9481;48.796;9.210;2022-07-23T12:56:34;96795.00;;;35.60
18704;BMP180;9481;48.796;9.210;2022-07-23T13:01:37;96795.00;;;35.70
18704;BMP180;9481;48.796;9.210;2022-07-23T13:04:15;96795.00;;;35.60
18704;BMP180;9481;48.796;9.210;2022-07-23T13:06:49;96792.00;;;35.60
18704;BMP180;9481;48.796;9.210;2022-07-23T13:09:21;96799.00;;;35.50
18704;BMP180;9481;48.796;9.210;2022-07-23T13:11:50;96797.00;;;35.40
18704;BMP180;9481;48.796;9.210;2022-07-23T13:14:19;96804.00;;;35.40
18704;BMP180;9481;48.796;9.210;2022-07-23T13:16:47;96793.00;;;35.40
18704;BMP180;9481;48.796;9.210;2022-07-23T13:19:13;96801.00;;;35.40
18704;BMP180;9481;48.796;9.210;2022-07-23T13:21:41;96795.00;;;35.40
18704;BMP180;9481;48.796;9.210;2022-07-23T13:24:09;96803.00;;;35.30
18704;BMP180;9481;48.796;9.210;2022-07-23T13:26:36;96809.00;;;35.20
18704;BMP180;9481;48.796;9.210;2022-07-23T13:29:03;96801.00;;;35.10
18704;BMP180;9481;48.796;9.210;2022-07-23T13:31:29;96805.00;;;35.00
18704;BMP180;9481;48.796;9.210;2022-07-23T13:33:54;96798.00;;;35.00
18704;BMP180;9481;48.796;9.210;2022-07-23T13:36:20;96798.00;;;34.90
18704;BMP180;9481;48.796;9.210;2022-07-23T13:38:46;96806.00;;;34.80
18704;BMP180;9481;48.796;9.210;2022-07-23T13:41:12;96806.00;;;34.70
18704;BMP180;9481;48.796;9.210;2022-07-23T13:43:37;96797.00;;;34.70
18704;BMP180;9481;48.796;9.210;2022-07-23T13:46:03;96807.00;;;34.70
18704;BMP180;9481;48.796;9.210;2022-07-23T13:48:29;96797.00;;;34.70
18704;BMP180;9481;48.796;9.210;2022-07-23T13:50:55;96791.00;;;34.70
18704;BMP180;9481;48.796;9.210;2022-07-23T13:53:23;96796.00;;;34.70
18704;BMP180;9481;48.796;9.210;2022-07-23T13:55:52;96786.00;;;34.70
18704;BMP180;9481;48.796;9.210;2022-07-23T13:58:19;96787.00;;;34.80
18704;BMP180;9481;48.796;9.210;2022-07-23T14:00:50;96791.00;;;34.80
18704;BMP180;9481;48.796;9.210;2022-07-23T14:03:17;96795.00;;;34.90
18704;BMP180;9481;48.796;9.210;2022-07-23T14:05:44;96798.00;;;34.90
18704;BMP180;9481;48.796;9.210;2022-07-23T14:08:10;96793.00;;;34.80
18704;BMP180;9481;48.796;9.210;2022-07-23T14:10:36;96789.00;;;34.80
18704;BMP180;9481;48.796;9.210;2022-07-23T14:13:03;96796.00;;;34.70
18704;BMP180;9481;48.796;9.210;2022-07-23T14:15:31;96795.00;;;34.60
18704;BMP180;9481;48.796;9.210;2022-07-23T14:17:58;96790.00;;;34.50
18704;BMP180;9481;48.796;9.210;2022-07-23T14:20:24;96790.00;;;34.50
18704;BMP180;9481;48.796;9.210;2022-07-23T14:22:51;96793.00;;;34.40
18704;BMP180;9481;48.796;9.210;2022-07-23T14:25:18;96782.00;;;34.30
18704;BMP180;9481;48.796;9.210;2022-07-23T14:27:44;96778.00;;;34.30
18704;BMP180;9481;48.796;9.210;2022-07-23T14:30:11;96785.00;;;34.30
18704;BMP180;9481;48.796;9.210;2022-07-23T14:32:37;96787.00;;;34.40
18704;BMP180;9481;48.796;9.210;2022-07-23T14:35:05;96783.00;;;34.40
18704;BMP180;9481;48.796;9.210;2022-07-23T14:37:31;96784.00;;;34.40
18704;BMP180;9481;48.796;9.210;2022-07-23T14:39:56;96776.00;;;34.50
18704;BMP180;9481;48.796;9.210;2022-07-23T14:42:22;96783.00;;;34.50
18704;BMP180;9481;48.796;9.210;2022-07-23T14:44:48;96781.00;;;34.50
18704;BMP180;9481;48.796;9.210;2022-07-23T14:47:14;96782.00;;;34.40
18704;BMP180;9481;48.796;9.210;2022-07-23T14:49:40;96774.00;;;34.40
18704;BMP180;9481;48.796;9.210;2022-07-23T14:52:06;96781.00;;;34.40
18704;BMP180;9481;48.796;9.210;2022-07-23T14:54:33;96768.00;;;34.30
18704;BMP180;9481;48.796;9.210;2022-07-23T14:57:01;96764.00;;;34.30
18704;BMP180;9481;48.796;9.210;2022-07-23T14:59:28;96760.00;;;34.30
18704;BMP180;9481;48.796;9.210;2022-07-23T15:01:56;96766.00;;;34.30
18704;BMP180;9481;48.796;9.210;2022-07-23T15:04:22;96764.00;;;34.40
18704;BMP180;9481;48.796;9.210;2022-07-23T15:06:47;96765.00;;;34.30